Time;durP1;ratioP1;P1;durP2;ratioP2;P2;SDS_P1;SDS_P2;PMS_P1;PMS_P2;Temp;Humidity;BMP_temperature;BMP_pressure;BME280_temperature;BME280_humidity;BME280_pressure;Samples;Min_cycle;Max_cycle;Signal;HPM_P1;HPM_P2
2022/09/13 00:00:35;;;;;;;13.30;10.75;;;16.50;99.90;;;;;;4903339;29;20475;-74
2022/09/13 00:03:08;;;;;;;13.82;11.80;;;16.50;99.90;;;;;;4903675;29;20043;-74
2022/09/13 00:05:42;;;;;;;12.23;10.48;;;16.50;99.90;;;;;;4902568;29;20074;-74
2022/09/13 00:08:14;;;;;;;14.70;11.48;;;16.50;99.90;;;;;;4902777;29;20122;-74
2022/09/13 00:10:43;;;;;;;13.13;11.10;;;16.50;99.90;;;;;;4920012;29;20049;-74
2022/09/13 00:13:16;;;;;;;13.18;10.55;;;16.50;99.90;;;;;;4903607;29;20135;-73
2022/09/13 00:15:45;;;;;;;;;;;16.40;99.90;;;;;;4902109;29;20486;-73
2022/09/13 00:18:13;;;;;;;12.15;10.85;;;16.40;99.90;;;;;;4918566;29;20013;-74
2022/09/13 00:20:39;;;;;;;12.68;11.13;;;16.40;99.90;;;;;;4919308;29;20549;-74
2022/09/13 00:23:14;;;;;;;12.93;11.52;;;16.40;99.90;;;;;;4921982;29;20514;-75
2022/09/13 00:25:45;;;;;;;13.52;12.05;;;16.40;99.90;;;;;;4894469;29;20458;-74
2022/09/13 00:28:17;;;;;;;13.63;12.23;;;16.40;99.90;;;;;;4895102;29;20482;-74
2022/09/13 00:30:46;;;;;;;14.18;12.77;;;16.40;99.90;;;;;;4910642;29;20043;-74
2022/09/13 00:33:12;;;;;;;13.75;12.27;;;16.40;99.90;;;;;;4922162;29;20137;-73
2022/09/13 00:35:41;;;;;;;15.05;13.30;;;16.50;99.90;;;;;;4921230;29;20083;-73
2022/09/13 00:38:09;;;;;;;14.77;13.27;;;16.50;99.90;;;;;;4902489;29;20130;-74
2022/09/13 00:40:45;;;;;;;15.07;13.38;;;16.50;99.90;;;;;;4921608;29;20054;-74
2022/09/13 00:43:43;;;;;;;13.93;12.48;;;16.40;99.90;;;;;;4921660;29;20043;-74
2022/09/13 00:46:26;;;;;;;14.25;12.70;;;16.40;99.90;;;;;;4905973;29;20105;-73
2022/09/13 00:48:57;;;;;;;14.63;13.13;;;16.50;99.90;;;;;;4921370;29;20408;-74
2022/09/13 00:51:26;;;;;;;14.63;13.05;;;16.40;99.90;;;;;;4919448;29;20054;-74
2022/09/13 00:53:58;;;;;;;15.98;12.43;;;16.50;99.90;;;;;;4908621;29;20621;-74
2022/09/13 00:56:42;;;;;;;15.30;13.52;;;16.50;99.90;;;;;;4900704;29;20047;-74
2022/09/13 00:59:31;;;;;;;16.10;14.32;;;16.40;99.90;;;;;;4929231;29;20082;-74
2022/09/13 01:01:59;;;;;;;14.80;13.20;;;16.50;99.90;;;;;;4911433;29;20591;-74
2022/09/13 01:04:27;;;;;;;18.75;13.68;;;16.50;99.90;;;;;;4902729;29;20051;-73
2022/09/13 01:07:02;;;;;;;14.88;13.25;;;16.40;99.90;;;;;;4902161;29;20383;-73
2022/09/13 01:09:32;;;;;;;14.88;12.75;;;16.40;99.90;;;;;;4901987;29;20047;-73
2022/09/13 01:12:07;;;;;;;15.55;13.70;;;16.40;99.90;;;;;;4928140;29;20494;-74
2022/09/13 01:14:33;;;;;;;15.27;13.07;;;16.40;99.90;;;;;;4920995;29;20047;-73
2022/09/13 01:17:00;;;;;;;17.52;15.02;;;16.50;99.90;;;;;;4912736;29;20039;-73
2022/09/13 01:19:27;;;;;;;17.05;14.85;;;16.50;99.90;;;;;;4909401;29;20052;-73
2022/09/13 01:22:14;;;;;;;15.27;13.52;;;16.50;99.90;;;;;;4903305;29;20114;-73
2022/09/13 01:25:01;;;;;;;14.77;13.23;;;16.40;99.90;;;;;;4920689;29;20039;-73
2022/09/13 01:27:37;;;;;;;16.52;14.05;;;16.40;99.90;;;;;;4903684;29;20126;-74
2022/09/13 01:30:12;;;;;;;15.30;13.60;;;16.40;99.90;;;;;;4915962;29;20052;-73
2022/09/13 01:33:09;;;;;;;16.08;14.38;;;16.40;99.90;;;;;;4908218;29;20082;-73
2022/09/13 01:35:50;;;;;;;18.27;14.63;;;16.40;99.90;;;;;;4920802;29;20046;-74
2022/09/13 01:38:30;;;;;;;18.90;14.40;;;16.40;99.90;;;;;;4936338;29;20482;-73
2022/09/13 01:41:23;;;;;;;19.27;15.90;;;16.40;99.90;;;;;;4920445;29;20047;-74
2022/09/13 01:44:14;;;;;;;17.88;15.30;;;16.50;99.90;;;;;;4924293;29;20047;-73
2022/09/13 01:47:02;;;;;;;18.88;15.23;;;16.50;99.90;;;;;;4907841;29;20059;-73
2022/09/13 01:49:31;;;;;;;17.75;15.32;;;16.50;99.90;;;;;;4900930;29;20047;-74
2022/09/13 01:52:19;;;;;;;18.58;15.75;;;16.50;99.90;;;;;;4900106;29;20163;-74
2022/09/13 01:55:14;;;;;;;16.08;14.38;;;16.50;99.90;;;;;;4919951;29;20046;-74
2022/09/13 01:57:59;;;;;;;18.02;15.93;;;16.50;99.90;;;;;;4915588;29;20036;-73
2022/09/13 02:00:34;;;;;;;17.48;15.52;;;16.50;99.90;;;;;;4916030;29;20624;-73
2022/09/13 02:03:11;;;;;;;18.20;15.95;;;16.50;99.90;;;;;;4930792;29;20145;-74
2022/09/13 02:05:46;;;;;;;18.23;15.43;;;16.50;99.90;;;;;;4917104;29;20050;-74
2022/09/13 02:08:40;;;;;;;17.58;13.55;;;16.60;99.90;;;;;;4894876;29;20084;-74
2022/09/13 02:11:12;;;;;;;16.55;14.52;;;16.60;99.90;;;;;;4901661;29;20044;-74
2022/09/13 02:13:45;;;;;;;17.17;15.05;;;16.70;99.90;;;;;;4901865;29;21833;-73
2022/09/13 02:16:21;;;;;;;16.80;14.98;;;16.60;99.90;;;;;;4936151;29;20043;-74
2022/09/13 02:18:56;;;;;;;15.93;13.90;;;16.60;99.90;;;;;;4920292;29;20047;-73
2022/09/13 02:21:29;;;;;;;17.75;15.55;;;16.60;99.90;;;;;;4904272;29;20529;-73
2022/09/13 02:24:14;;;;;;;18.58;15.27;;;16.70;99.90;;;;;;4909468;29;20032;-74
2022/09/13 02:26:44;;;;;;;18.57;15.40;;;16.60;99.90;;;;;;4916984;29;20039;-73
2022/09/13 02:29:17;;;;;;;17.55;15.10;;;16.50;99.90;;;;;;4903465;29;20086;-73
2022/09/13 02:32:05;;;;;;;18.33;15.45;;;16.60;99.90;;;;;;4905539;29;20055;-73
2022/09/13 02:34:45;;;;;;;19.88;14.45;;;16.50;99.90;;;;;;4916379;29;20044;-73
2022/09/13 02:37:12;;;;;;;16.67;14.30;;;16.50;99.90;;;;;;4937227;29;20047;-73
2022/09/13 02:39:46;;;;;;;16.85;13.98;;;16.50;99.90;;;;;;4907030;29;20139;-74
2022/09/13 02:42:17;;;;;;;17.88;14.82;;;16.60;99.90;;;;;;4905107;29;20446;-74
2022/09/13 02:44:52;;;;;;;18.05;15.20;;;16.50;99.90;;;;;;4905070;29;20035;-74
2022/09/13 02:47:53;;;;;;;19.00;16.40;;;16.60;99.90;;;;;;4903673;29;20043;-74
2022/09/13 02:50:41;;;;;;;17.65;15.32;;;16.60;99.90;;;;;;4965612;23;20130;-76
2022/09/13 02:53:19;;;;;;;18.65;14.63;;;16.60;99.90;;;;;;4919887;29;20055;-77
2022/09/13 02:55:51;;;;;;;19.70;15.98;;;16.60;99.90;;;;;;4920352;29;20040;-77
2022/09/13 02:58:44;;;;;;;18.00;16.10;;;16.60;99.90;;;;;;4918736;29;20051;-77
2022/09/13 03:01:10;;;;;;;19.30;15.60;;;16.60;99.90;;;;;;4914351;29;20043;-77
2022/09/13 03:03:36;;;;;;;17.10;15.30;;;16.60;99.90;;;;;;4891413;29;20636;-76
2022/09/13 03:06:01;;;;;;;18.33;16.02;;;16.60;99.90;;;;;;4901495;29;20562;-77
2022/09/13 03:08:28;;;;;;;19.85;16.52;;;16.60;99.90;;;;;;4885392;29;20087;-77
2022/09/13 03:11:09;;;;;;;17.75;14.85;;;16.60;99.90;;;;;;4887489;29;20306;-75
2022/09/13 03:13:53;;;;;;;20.10;15.23;;;16.70;99.90;;;;;;4907173;29;20503;-75
2022/09/13 03:17:00;;;;;;;21.00;16.92;;;16.60;99.90;;;;;;4877425;29;20051;-74
2022/09/13 03:19:36;;;;;;;18.27;16.35;;;16.70;99.90;;;;;;4917360;29;20470;-75
2022/09/13 03:22:34;;;;;;;24.67;17.15;;;16.70;99.90;;;;;;4906578;29;20099;-75
2022/09/13 03:25:18;;;;;;;25.25;16.25;;;16.70;99.90;;;;;;4870071;29;20054;-75
2022/09/13 03:27:56;;;;;;;20.58;16.58;;;16.70;99.90;;;;;;4904320;29;20048;-75
2022/09/13 03:30:21;;;;;;;22.35;17.52;;;16.70;99.90;;;;;;4885507;29;20048;-75
2022/09/13 03:32:55;;;;;;;22.00;17.02;;;16.80;99.90;;;;;;4915895;29;20055;-75
2022/09/13 03:35:38;;;;;;;20.25;16.65;;;16.70;99.90;;;;;;4903646;29;20099;-75
2022/09/13 03:38:20;;;;;;;20.88;17.10;;;16.80;99.90;;;;;;4897477;29;20053;-75
2022/09/13 03:40:51;;;;;;;19.67;16.93;;;16.80;99.90;;;;;;4898781;29;20442;-75
2022/09/13 03:43:45;;;;;;;21.88;17.60;;;16.80;99.90;;;;;;4913998;29;20394;-75
2022/09/13 03:46:33;;;;;;;20.60;16.75;;;16.80;99.90;;;;;;4899357;29;20147;-75
2022/09/13 03:49:04;;;;;;;24.75;16.67;;;16.80;99.90;;;;;;4919078;29;20078;-75
2022/09/13 03:51:30;;;;;;;18.45;15.63;;;16.80;99.90;;;;;;4919277;29;20055;-75
2022/09/13 03:54:00;;;;;;;19.95;17.55;;;16.80;99.90;;;;;;4895823;29;20051;-75
2022/09/13 03:56:25;;;;;;;24.52;16.20;;;16.80;99.90;;;;;;4915582;29;20111;-75
2022/09/13 03:58:51;;;;;;;20.45;16.38;;;16.70;99.90;;;;;;4934745;29;20041;-75
2022/09/13 04:01:19;;;;;;;20.02;17.13;;;16.80;99.90;;;;;;4919086;29;20118;-75
2022/09/13 04:03:45;;;;;;;18.48;16.45;;;16.80;99.90;;;;;;4919562;29;20119;-75
2022/09/13 04:06:11;;;;;;;23.63;16.58;;;16.80;99.90;;;;;;4934875;29;20172;-75
2022/09/13 04:08:36;;;;;;;23.00;17.05;;;16.80;99.90;;;;;;4877840;29;20414;-75
2022/09/13 04:11:02;;;;;;;17.50;15.63;;;16.80;99.90;;;;;;4906329;29;20044;-75
2022/09/13 04:13:28;;;;;;;18.95;16.23;;;16.80;99.90;;;;;;4934696;29;20050;-75
2022/09/13 04:15:53;;;;;;;24.02;17.02;;;16.80;99.90;;;;;;4929337;29;20040;-75
2022/09/13 04:18:19;;;;;;;19.50;16.77;;;16.90;99.90;;;;;;4894358;29;20048;-75
2022/09/13 04:20:53;;;;;;;18.40;16.27;;;16.80;99.90;;;;;;4898595;29;20036;-75
2022/09/13 04:23:19;;;;;;;21.40;14.85;;;16.80;99.90;;;;;;4915607;29;20048;-75
2022/09/13 04:25:45;;;;;;;17.77;15.82;;;16.80;99.90;;;;;;4909191;29;20048;-75
2022/09/13 04:28:10;;;;;;;19.05;16.15;;;16.80;99.90;;;;;;4918672;29;20044;-75
2022/09/13 04:30:36;;;;;;;18.15;16.00;;;16.80;99.90;;;;;;4901408;29;20409;-75
2022/09/13 04:33:01;;;;;;;17.30;15.45;;;16.80;99.90;;;;;;4899524;29;20036;-75
2022/09/13 04:35:27;;;;;;;19.67;15.20;;;16.80;99.90;;;;;;4899635;29;20044;-75
2022/09/13 04:37:59;;;;;;;18.17;15.65;;;16.80;99.90;;;;;;4899354;29;20051;-75
2022/09/13 04:40:24;;;;;;;17.45;15.63;;;16.80;99.90;;;;;;4920711;29;20036;-75
2022/09/13 04:42:50;;;;;;;19.35;15.27;;;16.70;99.90;;;;;;4929402;29;20051;-75
2022/09/13 04:45:15;;;;;;;18.38;15.48;;;16.70;99.90;;;;;;4932397;29;20380;-75
2022/09/13 04:47:41;;;;;;;19.58;15.80;;;16.70;99.90;;;;;;4900830;29;20040;-75
2022/09/13 04:50:08;;;;;;;18.08;15.55;;;16.70;99.90;;;;;;4884942;29;20118;-75
2022/09/13 04:52:34;;;;;;;19.45;15.52;;;16.70;99.90;;;;;;4933655;29;20052;-75
2022/09/13 04:55:00;;;;;;;17.90;14.43;;;16.70;99.90;;;;;;4902480;29;20039;-75
2022/09/13 04:57:29;;;;;;;17.65;15.35;;;16.70;99.90;;;;;;4922662;29;20043;-75
2022/09/13 04:59:55;;;;;;;16.92;14.63;;;16.80;99.90;;;;;;4880383;29;20514;-75
2022/09/13 05:02:20;;;;;;;17.65;15.02;;;16.70;99.90;;;;;;4889770;29;20044;-75
2022/09/13 05:04:46;;;;;;;17.92;14.77;;;16.80;99.90;;;;;;4905667;29;20063;-75
2022/09/13 05:07:12;;;;;;;20.85;16.00;;;16.80;99.90;;;;;;4914457;29;20048;-75
2022/09/13 05:09:37;;;;;;;20.77;15.77;;;16.80;99.90;;;;;;4899333;29;20047;-75
2022/09/13 05:12:03;;;;;;;27.60;15.30;;;16.80;99.90;;;;;;4902958;29;20483;-75
2022/09/13 05:14:29;;;;;;;17.73;15.82;;;16.80;99.90;;;;;;4894572;29;20067;-75
2022/09/13 05:16:54;;;;;;;19.38;15.98;;;16.90;99.90;;;;;;4898716;29;20059;-75
2022/09/13 05:19:20;;;;;;;17.23;15.45;;;16.80;99.90;;;;;;4883335;29;20046;-75
2022/09/13 05:21:45;;;;;;;18.05;13.82;;;16.80;99.90;;;;;;4898832;29;20040;-75
2022/09/13 05:24:11;;;;;;;15.60;13.30;;;16.90;99.90;;;;;;4898833;29;20036;-75
2022/09/13 05:26:37;;;;;;;16.90;13.10;;;16.90;99.90;;;;;;4921816;29;20043;-75
2022/09/13 05:29:03;;;;;;;15.70;13.18;;;16.90;99.90;;;;;;4920673;29;20087;-75
2022/09/13 05:31:35;;;;;;;14.25;11.93;;;17.00;99.90;;;;;;4898765;29;20043;-75
2022/09/13 05:34:04;;;;;;;14.27;11.57;;;17.00;99.90;;;;;;4925926;29;20070;-75
2022/09/13 05:36:30;;;;;;;10.38;9.20;;;16.90;99.90;;;;;;4904676;29;20071;-75
2022/09/13 05:38:56;;;;;;;9.98;8.80;;;17.10;99.90;;;;;;4903030;29;20072;-75
2022/09/13 05:41:22;;;;;;;9.65;7.70;;;17.00;99.90;;;;;;4894216;29;20047;-75
2022/09/13 05:43:48;;;;;;;10.10;7.43;;;17.00;99.90;;;;;;4898034;29;20036;-75
2022/09/13 05:46:16;;;;;;;7.47;6.68;;;17.10;99.90;;;;;;4901545;29;20490;-75
2022/09/13 05:48:42;;;;;;;9.23;6.50;;;17.10;99.90;;;;;;4924247;29;20036;-75
2022/09/13 05:51:16;;;;;;;7.82;6.57;;;17.10;99.90;;;;;;4933227;29;20410;-75
2022/09/13 05:53:45;;;;;;;7.53;6.32;;;17.10;99.90;;;;;;4913794;29;20123;-75
2022/09/13 05:56:16;;;;;;;7.50;6.28;;;17.10;99.90;;;;;;4903891;29;20179;-75
2022/09/13 05:58:45;;;;;;;8.18;6.45;;;17.10;99.90;;;;;;4898160;29;20051;-76
2022/09/13 06:01:11;;;;;;;6.20;5.60;;;17.10;99.90;;;;;;4900842;29;20402;-74
2022/09/13 06:03:37;;;;;;;6.25;5.32;;;17.20;99.90;;;;;;4917588;29;20055;-75
2022/09/13 06:06:04;;;;;;;7.35;5.55;;;17.20;99.90;;;;;;4905961;29;20040;-75
2022/09/13 06:08:31;;;;;;;7.50;5.32;;;17.20;99.90;;;;;;4908362;29;20051;-76
2022/09/13 06:10:59;;;;;;;6.00;4.82;;;17.20;99.90;;;;;;4937065;29;20064;-75
2022/09/13 06:13:26;;;;;;;5.00;4.47;;;17.20;99.90;;;;;;4929457;29;20503;-75
2022/09/13 06:15:53;;;;;;;5.00;4.30;;;17.30;99.90;;;;;;4913165;29;20414;-76
2022/09/13 06:18:20;;;;;;;4.90;4.10;;;17.30;99.90;;;;;;4926470;29;20040;-76
2022/09/13 06:20:45;;;;;;;3.75;3.33;;;17.30;99.90;;;;;;4901848;29;20135;-75
2022/09/13 06:23:11;;;;;;;6.00;3.55;;;17.40;99.90;;;;;;4906229;29;20151;-75
2022/09/13 06:25:37;;;;;;;3.75;3.33;;;17.30;99.90;;;;;;4936577;29;20054;-75
2022/09/13 06:28:03;;;;;;;3.50;2.90;;;17.40;99.90;;;;;;4916588;29;20036;-76
2022/09/13 06:30:29;;;;;;;3.75;2.42;;;17.30;99.90;;;;;;4909706;29;20040;-75
2022/09/13 06:32:57;;;;;;;2.80;2.45;;;17.20;99.90;;;;;;4901854;29;20052;-75
2022/09/13 06:35:23;;;;;;;2.92;2.55;;;17.30;99.90;;;;;;4917553;29;20063;-75
2022/09/13 06:37:49;;;;;;;2.67;2.35;;;17.30;99.90;;;;;;4917621;29;20606;-75
2022/09/13 06:40:15;;;;;;;2.00;1.85;;;17.40;99.90;;;;;;4913370;29;20521;-76
2022/09/13 06:42:41;;;;;;;3.03;2.10;;;17.30;99.90;;;;;;4917433;29;20464;-75
2022/09/13 06:45:07;;;;;;;2.00;1.80;;;17.40;99.90;;;;;;4917301;29;20039;-75
2022/09/13 06:47:33;;;;;;;2.22;1.90;;;17.40;99.90;;;;;;4903011;29;21358;-75
2022/09/13 06:49:59;;;;;;;2.50;2.10;;;17.40;99.90;;;;;;4907185;29;20367;-76
2022/09/13 06:52:26;;;;;;;2.70;1.75;;;17.40;99.90;;;;;;4901893;29;20495;-76
2022/09/13 06:54:52;;;;;;;2.15;1.63;;;17.30;99.90;;;;;;4916274;29;20048;-77
2022/09/13 06:57:18;;;;;;;2.08;1.90;;;17.30;99.90;;;;;;4900498;29;20384;-77
2022/09/13 06:59:44;;;;;;;3.22;2.17;;;17.30;99.90;;;;;;4901227;29;20043;-77
2022/09/13 07:02:10;;;;;;;2.30;2.08;;;17.30;99.90;;;;;;4901626;29;20052;-76
2022/09/13 07:04:35;;;;;;;2.83;2.10;;;17.40;99.90;;;;;;4901422;29;20068;-77
2022/09/13 07:07:01;;;;;;;2.40;2.20;;;17.40;99.90;;;;;;4897180;29;20068;-77
2022/09/13 07:09:27;;;;;;;3.00;2.20;;;17.40;99.90;;;;;;4901291;29;20040;-76
2022/09/13 07:11:54;;;;;;;2.88;2.15;;;17.40;99.90;;;;;;4901148;29;20564;-77
2022/09/13 07:14:25;;;;;;;2.67;2.10;;;17.40;99.90;;;;;;4900664;29;20487;-76
2022/09/13 07:16:52;;;;;;;2.60;2.25;;;17.40;99.90;;;;;;4901396;29;20040;-77
2022/09/13 07:19:25;;;;;;;2.90;2.30;;;17.50;99.90;;;;;;4885375;29;20040;-77
2022/09/13 07:21:51;;;;;;;2.60;2.40;;;17.50;99.90;;;;;;4897434;29;20044;-78
2022/09/13 07:24:18;;;;;;;3.15;2.45;;;17.50;99.90;;;;;;4891397;29;20403;-77
2022/09/13 07:26:45;;;;;;;3.03;2.30;;;17.60;99.90;;;;;;4905459;29;20044;-77
2022/09/13 07:29:17;;;;;;;2.67;2.38;;;17.70;99.90;;;;;;4928841;29;20055;-77
2022/09/13 07:31:46;;;;;;;2.42;2.17;;;17.70;99.90;;;;;;4915665;29;20044;-77
2022/09/13 07:34:14;;;;;;;2.20;2.00;;;17.80;99.90;;;;;;4927939;29;20050;-77
2022/09/13 07:36:41;;;;;;;2.60;2.20;;;17.80;99.90;;;;;;4896625;29;20103;-77
2022/09/13 07:39:07;;;;;;;3.42;2.17;;;17.90;99.90;;;;;;4913435;29;20119;-76
2022/09/13 07:41:33;;;;;;;3.25;2.00;;;17.90;99.90;;;;;;4907424;29;20126;-76
2022/09/13 07:44:07;;;;;;;2.17;1.98;;;17.90;99.90;;;;;;4935627;29;20491;-75
2022/09/13 07:46:38;;;;;;;2.70;2.00;;;18.00;99.90;;;;;;4889540;29;20042;-76
2022/09/13 07:49:04;;;;;;;2.90;1.95;;;18.00;99.90;;;;;;4902834;29;20048;-76
2022/09/13 07:51:36;;;;;;;2.05;1.92;;;18.10;99.90;;;;;;4908109;29;20044;-76
2022/09/13 07:54:10;;;;;;;3.03;2.22;;;18.10;99.90;;;;;;4935010;29;20525;-76
2022/09/13 07:56:38;;;;;;;2.97;2.28;;;18.20;99.90;;;;;;4932122;29;20527;-76
2022/09/13 07:59:06;;;;;;;2.50;2.20;;;18.20;99.90;;;;;;4919605;29;20139;-76
2022/09/13 08:01:37;;;;;;;2.53;1.85;;;18.30;99.90;;;;;;4912259;29;20036;-76
2022/09/13 08:04:06;;;;;;;2.40;1.70;;;18.40;99.90;;;;;;4890533;29;20503;-76
2022/09/13 08:06:33;;;;;;;1.70;1.40;;;18.50;99.90;;;;;;4926791;29;20458;-76
2022/09/13 08:08:59;;;;;;;1.92;1.60;;;18.40;99.90;;;;;;4914605;29;20088;-76
2022/09/13 08:11:30;;;;;;;2.05;1.80;;;18.40;99.90;;;;;;4903454;29;20047;-76
2022/09/13 08:13:57;;;;;;;1.80;1.70;;;18.40;99.90;;;;;;4898891;29;20044;-76
2022/09/13 08:16:23;;;;;;;2.50;1.63;;;18.50;99.90;;;;;;4914150;29;20051;-76
2022/09/13 08:18:54;;;;;;;3.28;2.00;;;18.60;99.90;;;;;;4909625;29;20051;-76
2022/09/13 08:21:21;;;;;;;2.03;1.60;;;18.80;99.90;;;;;;4908091;29;20052;-76
2022/09/13 08:23:46;;;;;;;2.42;1.70;;;18.90;99.90;;;;;;4903978;29;20090;-76
2022/09/13 08:26:13;;;;;;;2.15;1.80;;;19.00;99.90;;;;;;4912322;29;20126;-76
2022/09/13 08:28:40;;;;;;;2.40;1.70;;;19.20;99.90;;;;;;4925246;29;20039;-76
2022/09/13 08:31:07;;;;;;;2.55;1.40;;;19.20;99.90;;;;;;4918493;29;20089;-76
2022/09/13 08:33:33;;;;;;;3.67;1.70;;;19.10;99.90;;;;;;4929923;29;20181;-76
2022/09/13 08:35:59;;;;;;;2.55;1.45;;;19.10;99.90;;;;;;4900422;29;20039;-76
2022/09/13 08:38:24;;;;;;;2.03;1.40;;;19.00;99.90;;;;;;4916094;29;20399;-76
2022/09/13 08:40:55;;;;;;;3.35;1.50;;;19.10;99.90;;;;;;4899586;29;20040;-76
2022/09/13 08:43:36;;;;;;;4.38;1.02;;;19.20;99.90;;;;;;4899230;29;20048;-75
2022/09/13 08:46:07;;;;;;;2.50;0.60;;;19.30;99.90;;;;;;4909862;29;20395;-76
2022/09/13 08:48:36;;;;;;;3.17;0.73;;;19.50;99.90;;;;;;4899150;29;20040;-75
2022/09/13 08:51:13;;;;;;;2.70;0.80;;;19.70;99.90;;;;;;4911043;29;20403;-75
2022/09/13 08:53:46;;;;;;;1.60;0.65;;;20.10;99.90;;;;;;4918361;29;20044;-75
2022/09/13 08:56:35;;;;;;;2.22;0.90;;;20.30;99.90;;;;;;4899553;29;20075;-77
2022/09/13 08:59:31;;;;;;;4.80;0.90;;;20.40;99.90;;;;;;4898159;29;20056;-75
2022/09/13 09:02:18;;;;;;;1.48;0.90;;;20.60;99.90;;;;;;4895215;29;20052;-75
2022/09/13 09:05:00;;;;;;;1.23;0.70;;;20.90;99.90;;;;;;4899025;29;20447;-76
2022/09/13 09:07:30;;;;;;;2.22;0.70;;;21.20;99.90;;;;;;4883903;29;20499;-76
2022/09/13 09:10:03;;;;;;;1.90;0.85;;;21.50;99.90;;;;;;4922030;29;20131;-76
2022/09/13 09:12:41;;;;;;;2.00;0.57;;;21.50;99.90;;;;;;4896888;29;20044;-77
2022/09/13 09:15:23;;;;;;;3.80;0.65;;;21.40;99.90;;;;;;4898952;29;20044;-77
2022/09/13 09:18:09;;;;;;;1.38;0.63;;;21.10;99.90;;;;;;4898182;29;20063;-77
2022/09/13 09:20:50;;;;;;;2.92;0.60;;;20.90;99.90;;;;;;4896510;29;20518;-76
2022/09/13 09:23:39;;;;;;;1.05;0.73;;;20.80;99.90;;;;;;4876508;29;20049;-76
2022/09/13 09:26:27;;;;;;;1.40;0.60;;;20.80;99.90;;;;;;4914937;29;20067;-77
2022/09/13 09:28:59;;;;;;;1.77;0.70;;;21.20;99.90;;;;;;4898894;29;20403;-77
2022/09/13 09:31:27;;;;;;;3.22;0.70;;;21.80;99.90;;;;;;4897235;29;20078;-78
2022/09/13 09:34:29;;;;;;;2.35;0.50;;;22.40;99.90;;;;;;4897698;29;20063;-76
2022/09/13 09:37:13;;;;;;;0.55;0.40;;;22.70;99.90;;;;;;4896545;29;20059;-76
2022/09/13 09:39:39;;;;;;;0.68;0.60;;;22.90;99.90;;;;;;4898705;29;20040;-77
2022/09/13 09:42:16;;;;;;;1.63;0.50;;;23.10;99.90;;;;;;4914249;29;20040;-76
2022/09/13 09:44:45;;;;;;;0.30;0.30;;;23.30;99.90;;;;;;4893864;29;20124;-76
2022/09/13 09:47:21;;;;;;;0.95;0.40;;;23.40;99.90;;;;;;4918186;29;20198;-76
2022/09/13 09:50:09;;;;;;;0.50;0.40;;;23.50;99.90;;;;;;4917650;29;20054;-76
2022/09/13 09:52:55;;;;;;;0.98;0.57;;;23.50;99.90;;;;;;4914875;29;20040;-76
2022/09/13 09:55:28;;;;;;;1.45;0.40;;;23.40;99.90;;;;;;4888803;29;20068;-76
2022/09/13 09:57:59;;;;;;;0.75;0.30;;;23.60;99.90;;;;;;4914130;29;20040;-77
2022/09/13 10:00:32;;;;;;;1.58;0.30;;;23.80;99.90;;;;;;4904167;29;21636;-77
2022/09/13 10:03:07;;;;;;;1.05;0.32;;;23.90;99.90;;;;;;4920964;29;20503;-77
2022/09/13 10:05:34;;;;;;;1.50;0.50;;;24.00;99.90;;;;;;4904128;29;20142;-77
2022/09/13 10:08:07;;;;;;;1.27;0.40;;;24.10;99.90;;;;;;4914494;29;20054;-77
2022/09/13 10:10:41;;;;;;;2.00;0.45;;;24.30;99.90;;;;;;4902679;29;20115;-76
2022/09/13 10:13:15;;;;;;;0.40;0.30;;;24.30;99.90;;;;;;4933156;29;20491;-77
2022/09/13 10:15:53;;;;;;;0.65;0.30;;;24.30;99.90;;;;;;4920715;29;20040;-77
2022/09/13 10:18:21;;;;;;;0.38;0.20;;;24.40;96.40;;;;;;4928154;29;20047;-78
2022/09/13 10:21:16;;;;;;;1.85;0.40;;;24.60;99.90;;;;;;4910722;29;20035;-77
2022/09/13 10:23:42;;;;;;;1.02;0.40;;;24.80;99.90;;;;;;4873277;29;20056;-77
2022/09/13 10:26:07;;;;;;;0.70;0.30;;;25.10;97.30;;;;;;4901945;29;20047;-76
2022/09/13 10:28:42;;;;;;;1.08;0.35;;;25.30;95.40;;;;;;4921496;29;20040;-77
2022/09/13 10:31:12;;;;;;;0.30;0.30;;;25.50;94.10;;;;;;4906137;29;20048;-77
2022/09/13 10:33:49;;;;;;;0.38;0.30;;;25.40;85.40;;;;;;4901650;29;20095;-76
2022/09/13 10:36:26;;;;;;;0.68;0.20;;;25.70;91.50;;;;;;4896308;29;20044;-76
2022/09/13 10:39:05;;;;;;;0.55;0.30;;;25.80;89.90;;;;;;4922923;29;20131;-79
2022/09/13 10:41:37;;;;;;;0.88;0.50;;;26.00;82.90;;;;;;4898343;29;20495;-77
2022/09/13 10:44:21;;;;;;;1.20;0.30;;;26.00;88.40;;;;;;4882485;29;20052;-76
2022/09/13 10:46:48;;;;;;;1.25;0.40;;;26.00;84.40;;;;;;4892086;29;20825;-77
2022/09/13 10:49:53;;;;;;;1.00;0.22;;;26.10;84.90;;;;;;4914149;29;20078;-77
2022/09/13 10:52:32;;;;;;;1.00;0.35;;;26.10;95.80;;;;;;4900426;29;20048;-77
2022/09/13 10:55:17;;;;;;;2.25;0.35;;;25.60;76.50;;;;;;4898627;29;20039;-77
2022/09/13 10:57:44;;;;;;;0.93;0.32;;;25.00;84.50;;;;;;4890323;29;20108;-76
2022/09/13 11:00:12;;;;;;;0.40;0.35;;;24.90;88.20;;;;;;4901923;29;20127;-77
2022/09/13 11:02:57;;;;;;;1.15;0.50;;;25.00;90.10;;;;;;4906472;29;20063;-77
2022/09/13 11:05:27;;;;;;;1.80;0.63;;;25.00;86.90;;;;;;4896248;29;20040;-77
2022/09/13 11:08:23;;;;;;;0.77;0.40;;;25.20;90.90;;;;;;4905442;29;20032;-77
2022/09/13 11:11:09;;;;;;;0.93;0.40;;;25.10;82.90;;;;;;4912857;29;20047;-76
2022/09/13 11:14:01;;;;;;;0.68;0.47;;;24.90;82.20;;;;;;4920510;29;20072;-77
2022/09/13 11:16:45;;;;;;;1.70;0.55;;;24.80;82.20;;;;;;4903601;29;20571;-77
2022/09/13 11:19:39;;;;;;;1.15;0.35;;;24.80;82.50;;;;;;4916526;29;20078;-77
2022/09/13 11:22:36;;;;;;;1.05;0.40;;;24.90;84.50;;;;;;4906463;29;20084;-77
2022/09/13 11:25:07;;;;;;;0.88;0.50;;;25.00;85.80;;;;;;4911427;29;20058;-76
2022/09/13 11:28:11;;;;;;;1.50;0.57;;;25.00;83.40;;;;;;4904997;29;20122;-77
2022/09/13 11:30:57;;;;;;;0.95;0.40;;;24.90;79.10;;;;;;4903942;29;20051;-76
2022/09/13 11:33:40;;;;;;;1.70;0.47;;;24.90;83.40;;;;;;4935492;29;20107;-76
2022/09/13 11:36:36;;;;;;;0.60;0.22;;;25.20;85.50;;;;;;4935526;29;20130;-76
2022/09/13 11:39:07;;;;;;;2.08;0.40;;;25.30;81.90;;;;;;4935329;29;20134;-76
2022/09/13 11:41:38;;;;;;;1.98;0.60;;;25.20;77.60;;;;;;4885409;29;20407;-76
2022/09/13 11:44:27;;;;;;;2.00;0.40;;;24.80;79.40;;;;;;4900752;29;20044;-76
2022/09/13 11:47:19;;;;;;;1.08;0.32;;;24.50;81.20;;;;;;4878367;29;20391;-76
2022/09/13 11:50:00;;;;;;;1.35;0.30;;;24.50;81.40;;;;;;4907213;29;20055;-76
2022/09/13 11:52:59;;;;;;;0.70;0.20;;;24.70;82.70;;;;;;4900599;29;20114;-76
2022/09/13 11:55:33;;;;;;;0.88;0.20;;;24.80;81.00;;;;;;4896226;29;20044;-76
2022/09/13 11:58:04;;;;;;;0.77;0.30;;;24.90;80.00;;;;;;4912080;29;20131;-76
2022/09/13 12:00:33;;;;;;;1.42;0.57;;;24.90;80.30;;;;;;4899430;29;20040;-76
2022/09/13 12:03:17;;;;;;;0.60;0.30;;;24.90;79.00;;;;;;4892726;29;20051;-76
2022/09/13 12:05:52;;;;;;;0.57;0.25;;;24.90;81.60;;;;;;4915884;29;20047;-76
2022/09/13 12:08:28;;;;;;;1.27;0.28;;;24.90;83.80;;;;;;4900414;29;20380;-76
2022/09/13 12:11:02;;;;;;;0.82;0.30;;;24.90;81.20;;;;;;4894283;29;20127;-76
2022/09/13 12:13:34;;;;;;;0.50;0.20;;;24.90;82.30;;;;;;4900413;29;20051;-76
2022/09/13 12:16:08;;;;;;;0.88;0.25;;;25.10;81.80;;;;;;4900393;29;20111;-76
2022/09/13 12:18:41;;;;;;;0.55;0.22;;;25.00;76.40;;;;;;4899973;29;20055;-76
2022/09/13 12:21:08;;;;;;;0.43;0.20;;;25.10;76.50;;;;;;4899673;29;20445;-76
2022/09/13 12:23:43;;;;;;;1.42;0.40;;;25.20;73.40;;;;;;4902217;29;20103;-76
2022/09/13 12:26:29;;;;;;;1.60;0.30;;;25.10;74.50;;;;;;4898617;29;20040;-76
2022/09/13 12:29:00;;;;;;;2.22;0.40;;;25.00;77.90;;;;;;4899969;29;20043;-76
2022/09/13 12:31:28;;;;;;;0.80;0.30;;;25.20;75.20;;;;;;4896485;29;20040;-76
2022/09/13 12:33:55;;;;;;;1.25;0.30;;;25.30;72.40;;;;;;4892121;29;20499;-76
2022/09/13 12:36:27;;;;;;;2.25;0.70;;;25.30;74.70;;;;;;4901195;29;20075;-77
2022/09/13 12:39:22;;;;;;;2.05;0.43;;;25.20;74.70;;;;;;4912254;29;20131;-76
2022/09/13 12:42:24;;;;;;;1.25;0.40;;;25.00;75.90;;;;;;4911577;29;20460;-76
2022/09/13 12:45:32;;;;;;;1.20;0.30;;;24.80;76.20;;;;;;4896507;29;20048;-77
2022/09/13 12:48:23;;;;;;;1.92;0.28;;;24.70;75.70;;;;;;4895900;29;20047;-76
2022/09/13 12:50:58;;;;;;;1.00;0.63;;;24.50;78.40;;;;;;4909480;29;20044;-77
2022/09/13 12:53:45;;;;;;;1.65;0.38;;;24.50;78.80;;;;;;4934078;29;20495;-76
2022/09/13 12:56:16;;;;;;;2.20;0.30;;;24.60;76.20;;;;;;4927094;29;20074;-77
2022/09/13 12:58:45;;;;;;;1.73;0.65;;;24.40;75.30;;;;;;4895055;29;20050;-76
2022/09/13 13:01:18;;;;;;;1.35;0.40;;;24.30;79.70;;;;;;4913143;29;20044;-76
2022/09/13 13:04:14;;;;;;;1.75;0.30;;;24.10;72.10;;;;;;4906629;29;20164;-77
2022/09/13 13:06:46;;;;;;;0.65;0.30;;;23.90;78.20;;;;;;4900970;29;20076;-76
2022/09/13 13:09:34;;;;;;;1.35;0.45;;;23.80;80.90;;;;;;4902026;29;20062;-77
2022/09/13 13:12:00;;;;;;;1.70;0.30;;;23.60;79.50;;;;;;4904868;29;20410;-75